Hurghada, Egypti

2. maaliskuuta 2015 klo 16:57 (EET) (GMT +0200)
Hurghada International | Change Station
CLOSE
Current Station
Airport
Location: Hurghada,
Korkeus: 46 ft
Lähimmät sääasemat

Kork 46 ft 27.18 °N, 33.80 °E | Updated 57 minutes ago

Clear
Selkeää
75 °F
Tuntuu kuin 75 °F
N
21
Tuuli Suunnaltaan vaihteleva Tuuli ilmansuunnasta Pohjoinen

Tänään
Korkea -- | Matala -- °F
--% Sateen mahd.
Eilen
Korkea -- | Matala -- °F
Precip. -- tuumaa
6:08 AM 5:46 PM
Kasvava kupera kuu, 91% visible
Ilmanpaine 29.98 tuumaa
Näkyvyys -9999.0 mailia
Pilviä
Kastepiste 46 °F
Ilmankosteus 36%
Sademäärä 0.00 tuumaa
Lumensyvyys Ei saatavilla
UV Ei saatavilla
Pollen Ei saatavilla
Ilmanlaatu Ei saatavilla
Flu Activity Ei saatavilla
METAR HEGN 021400Z 01018KT CAVOK 24/08 Q1015 NOSIG

More Conditions Fewer Conditions

Ilmanpaine 29.98 tuumaa
Näkyvyys -9999.0 mailia
Pilviä
Kastepiste 46 °F
Ilmankosteus 36%
Sademäärä 0.00 tuumaa
Lumensyvyys Ei saatavilla
UV Ei saatavilla
Pollen Ei saatavilla
Ilmanlaatu Ei saatavilla
Flu Activity Ei saatavilla
METAR HEGN 021400Z 01018KT CAVOK 24/08 Q1015 NOSIG

More Conditions Fewer Conditions

10-Day Weather Forecast

Almanac

Tähtitiede

Mar. 02, 2015 Nousuaika Laskuaika
Valoisa aika
Porvarillinen hämärä
Nauttinen hämärä
Astronominen hämärä
Kuu
Näkyvän valon pituus
Päivän pituus
Tomorrow will be .
, % of the Moon is Illuminated

Tämän päivän ennätykset

Country Highs Country Lows

Community

WunderPhotos

Upload Photos

1,801,794 photos uploaded!

WunderBlogs® & News

Nearby

Ilmanlaatu

  Ilmanlaatu AQ Index Pollutant
Not available.

Lumensyvyys

Station Depth Korkeus

Maanjäristysaktiivisuus

Paikkakunta Distance Mag. Time & Date
Minimum magnitude displayed is 2.5.

Coastal Water Temperatures

Paikka Lämpötila

Lähimmät sääasemat